sensor_id;sensor_type;location;lat;lon;timestamp;pressure;altitude;pressure_sealevel;temperature
64947;BMP280;51469;52.150;4.682;2024-03-02T00:02:12;99916.31;;;13.42
64947;BMP280;51469;52.150;4.682;2024-03-02T00:04:37;99917.75;;;13.50
64947;BMP280;51469;52.150;4.682;2024-03-02T00:07:03;99925.69;;;13.48
64947;BMP280;51469;52.150;4.682;2024-03-02T00:09:29;99926.78;;;13.54
64947;BMP280;51469;52.150;4.682;2024-03-02T00:11:54;99922.22;;;13.14
64947;BMP280;51469;52.150;4.682;2024-03-02T00:14:20;99939.47;;;13.21
64947;BMP280;51469;52.150;4.682;2024-03-02T00:16:45;99941.88;;;13.16
64947;BMP280;51469;52.150;4.682;2024-03-02T00:19:11;99944.44;;;13.03
64947;BMP280;51469;52.150;4.682;2024-03-02T00:21:37;99941.56;;;13.37
64947;BMP280;51469;52.150;4.682;2024-03-02T00:24:17;99945.72;;;13.22
64947;BMP280;51469;52.150;4.682;2024-03-02T00:26:45;99951.13;;;12.99
64947;BMP280;51469;52.150;4.682;2024-03-02T00:29:15;99954.38;;;12.60
64947;BMP280;51469;52.150;4.682;2024-03-02T00:31:40;99946.63;;;12.52
64947;BMP280;51469;52.150;4.682;2024-03-02T00:34:06;99953.13;;;12.28
64947;BMP280;51469;52.150;4.682;2024-03-02T00:36:31;99941.69;;;12.33
64947;BMP280;51469;52.150;4.682;2024-03-02T00:38:57;99955.56;;;12.93
64947;BMP280;51469;52.150;4.682;2024-03-02T00:41:23;99950.59;;;12.81
64947;BMP280;51469;52.150;4.682;2024-03-02T00:44:14;99957.28;;;12.80
64947;BMP280;51469;52.150;4.682;2024-03-02T00:46:41;99966.00;;;12.75
64947;BMP280;51469;52.150;4.682;2024-03-02T00:49:24;99957.69;;;12.82
64947;BMP280;51469;52.150;4.682;2024-03-02T00:51:51;99950.34;;;12.68
64947;BMP280;51469;52.150;4.682;2024-03-02T00:54:26;99952.25;;;13.05
64947;BMP280;51469;52.150;4.682;2024-03-02T00:56:52;99947.50;;;13.05
64947;BMP280;51469;52.150;4.682;2024-03-02T00:59:21;99955.28;;;12.84
64947;BMP280;51469;52.150;4.682;2024-03-02T01:04:19;99958.50;;;13.09
64947;BMP280;51469;52.150;4.682;2024-03-02T01:06:45;99962.72;;;12.87
64947;BMP280;51469;52.150;4.682;2024-03-02T01:09:10;99970.41;;;12.99
64947;BMP280;51469;52.150;4.682;2024-03-02T01:11:37;99968.53;;;12.92
64947;BMP280;51469;52.150;4.682;2024-03-02T01:14:02;99953.00;;;13.09
64947;BMP280;51469;52.150;4.682;2024-03-02T01:16:29;99955.19;;;13.21
64947;BMP280;51469;52.150;4.682;2024-03-02T01:18:54;99949.00;;;12.46
64947;BMP280;51469;52.150;4.682;2024-03-02T01:21:20;99949.41;;;12.82
64947;BMP280;51469;52.150;4.682;2024-03-02T01:23:45;99942.22;;;12.91
64947;BMP280;51469;52.150;4.682;2024-03-02T01:26:10;99939.03;;;12.63
64947;BMP280;51469;52.150;4.682;2024-03-02T01:28:36;99951.44;;;12.41
64947;BMP280;51469;52.150;4.682;2024-03-02T01:31:01;99948.75;;;12.71
64947;BMP280;51469;52.150;4.682;2024-03-02T01:33:27;99959.63;;;12.48
64947;BMP280;51469;52.150;4.682;2024-03-02T01:35:52;99966.72;;;12.79
64947;BMP280;51469;52.150;4.682;2024-03-02T01:38:18;99967.16;;;12.77
64947;BMP280;51469;52.150;4.682;2024-03-02T01:40:43;99967.56;;;12.76
64947;BMP280;51469;52.150;4.682;2024-03-02T01:43:12;99989.19;;;12.74
64947;BMP280;51469;52.150;4.682;2024-03-02T01:45:37;99993.59;;;12.68
64947;BMP280;51469;52.150;4.682;2024-03-02T01:48:04;99982.66;;;12.61
64947;BMP280;51469;52.150;4.682;2024-03-02T01:50:34;99972.69;;;12.74
64947;BMP280;51469;52.150;4.682;2024-03-02T01:53:00;99980.03;;;12.84
64947;BMP280;51469;52.150;4.682;2024-03-02T01:55:26;99971.19;;;13.03
64947;BMP280;51469;52.150;4.682;2024-03-02T01:57:54;99962.38;;;13.15
64947;BMP280;51469;52.150;4.682;2024-03-02T02:00:19;99991.69;;;12.98
64947;BMP280;51469;52.150;4.682;2024-03-02T02:02:46;99999.41;;;13.07
64947;BMP280;51469;52.150;4.682;2024-03-02T02:05:12;99976.56;;;12.80
64947;BMP280;51469;52.150;4.682;2024-03-02T02:07:40;99989.16;;;12.44
64947;BMP280;51469;52.150;4.682;2024-03-02T02:10:05;99984.31;;;12.55
64947;BMP280;51469;52.150;4.682;2024-03-02T02:12:31;99984.81;;;12.80
64947;BMP280;51469;52.150;4.682;2024-03-02T02:14:57;99987.06;;;12.92
64947;BMP280;51469;52.150;4.682;2024-03-02T02:17:22;99991.22;;;12.70
64947;BMP280;51469;52.150;4.682;2024-03-02T02:19:48;99991.16;;;12.77
64947;BMP280;51469;52.150;4.682;2024-03-02T02:22:13;99991.81;;;12.88
64947;BMP280;51469;52.150;4.682;2024-03-02T02:24:42;99996.16;;;12.48
64947;BMP280;51469;52.150;4.682;2024-03-02T02:27:08;99993.47;;;12.82
64947;BMP280;51469;52.150;4.682;2024-03-02T02:29:34;99993.19;;;13.03
64947;BMP280;51469;52.150;4.682;2024-03-02T02:31:59;100001.47;;;13.03
64947;BMP280;51469;52.150;4.682;2024-03-02T02:34:24;99998.00;;;12.95
64947;BMP280;51469;52.150;4.682;2024-03-02T02:36:50;99994.38;;;12.72
64947;BMP280;51469;52.150;4.682;2024-03-02T02:39:17;99989.56;;;12.76
64947;BMP280;51469;52.150;4.682;2024-03-02T02:41:44;99995.81;;;12.80
64947;BMP280;51469;52.150;4.682;2024-03-02T02:44:10;100004.75;;;12.54
64947;BMP280;51469;52.150;4.682;2024-03-02T02:46:38;99996.72;;;12.70
64947;BMP280;51469;52.150;4.682;2024-03-02T02:49:04;100001.75;;;12.78
64947;BMP280;51469;52.150;4.682;2024-03-02T02:51:29;99994.56;;;12.51
64947;BMP280;51469;52.150;4.682;2024-03-02T02:53:54;99984.75;;;12.87
64947;BMP280;51469;52.150;4.682;2024-03-02T02:56:20;99996.88;;;12.56
64947;BMP280;51469;52.150;4.682;2024-03-02T02:58:45;100000.88;;;12.48
64947;BMP280;51469;52.150;4.682;2024-03-02T03:01:10;99990.50;;;12.62
64947;BMP280;51469;52.150;4.682;2024-03-02T03:03:36;99995.53;;;12.71
64947;BMP280;51469;52.150;4.682;2024-03-02T03:06:01;99986.28;;;12.91
64947;BMP280;51469;52.150;4.682;2024-03-02T03:08:27;99989.97;;;12.41
64947;BMP280;51469;52.150;4.682;2024-03-02T03:10:53;99993.34;;;12.89
64947;BMP280;51469;52.150;4.682;2024-03-02T03:13:18;99989.56;;;12.76
64947;BMP280;51469;52.150;4.682;2024-03-02T03:15:43;99995.00;;;12.83
64947;BMP280;51469;52.150;4.682;2024-03-02T03:18:09;99991.06;;;12.84
64947;BMP280;51469;52.150;4.682;2024-03-02T03:20:35;99999.16;;;12.61
64947;BMP280;51469;52.150;4.682;2024-03-02T03:23:01;100001.59;;;12.59
64947;BMP280;51469;52.150;4.682;2024-03-02T03:25:26;100006.28;;;12.58
64947;BMP280;51469;52.150;4.682;2024-03-02T03:27:52;99998.22;;;12.78
64947;BMP280;51469;52.150;4.682;2024-03-02T03:30:20;100010.94;;;12.65
64947;BMP280;51469;52.150;4.682;2024-03-02T03:32:45;100009.41;;;12.60
64947;BMP280;51469;52.150;4.682;2024-03-02T03:35:13;100007.16;;;12.52
64947;BMP280;51469;52.150;4.682;2024-03-02T03:37:39;100011.75;;;12.65
64947;BMP280;51469;52.150;4.682;2024-03-02T03:40:06;100012.50;;;12.62
64947;BMP280;51469;52.150;4.682;2024-03-02T03:42:39;100010.03;;;12.75
64947;BMP280;51469;52.150;4.682;2024-03-02T03:45:05;100018.97;;;12.49
64947;BMP280;51469;52.150;4.682;2024-03-02T03:47:31;100008.69;;;12.53
64947;BMP280;51469;52.150;4.682;2024-03-02T03:49:57;100018.88;;;12.56
64947;BMP280;51469;52.150;4.682;2024-03-02T03:52:23;100016.28;;;12.42
64947;BMP280;51469;52.150;4.682;2024-03-02T03:54:48;100008.38;;;12.81
64947;BMP280;51469;52.150;4.682;2024-03-02T03:57:13;100010.16;;;12.61
64947;BMP280;51469;52.150;4.682;2024-03-02T03:59:39;100021.19;;;12.61
64947;BMP280;51469;52.150;4.682;2024-03-02T04:02:04;100018.97;;;12.49
64947;BMP280;51469;52.150;4.682;2024-03-02T04:04:29;100023.41;;;12.76
64947;BMP280;51469;52.150;4.682;2024-03-02T04:06:55;100013.31;;;12.63
64947;BMP280;51469;52.150;4.682;2024-03-02T04:09:20;100020.59;;;12.80
64947;BMP280;51469;52.150;4.682;2024-03-02T04:11:46;100032.94;;;12.65
64947;BMP280;51469;52.150;4.682;2024-03-02T04:14:11;100030.47;;;12.74
64947;BMP280;51469;52.150;4.682;2024-03-02T04:16:38;100032.69;;;12.86
64947;BMP280;51469;52.150;4.682;2024-03-02T04:19:03;100041.41;;;12.81
64947;BMP280;51469;52.150;4.682;2024-03-02T04:21:29;100036.81;;;12.71
64947;BMP280;51469;52.150;4.682;2024-03-02T04:23:54;100032.13;;;12.68
64947;BMP280;51469;52.150;4.682;2024-03-02T04:26:23;100036.91;;;12.64
64947;BMP280;51469;52.150;4.682;2024-03-02T04:28:49;100040.16;;;12.52
64947;BMP280;51469;52.150;4.682;2024-03-02T04:31:15;100034.06;;;12.30
64947;BMP280;51469;52.150;4.682;2024-03-02T04:33:40;100039.38;;;12.48
64947;BMP280;51469;52.150;4.682;2024-03-02T04:36:06;100041.63;;;12.60
64947;BMP280;51469;52.150;4.682;2024-03-02T04:38:34;100039.97;;;12.66
64947;BMP280;51469;52.150;4.682;2024-03-02T04:41:00;100041.75;;;12.46
64947;BMP280;51469;52.150;4.682;2024-03-02T04:43:25;100045.00;;;12.37
64947;BMP280;51469;52.150;4.682;2024-03-02T04:45:50;100039.06;;;12.39
64947;BMP280;51469;52.150;4.682;2024-03-02T04:48:16;100048.84;;;12.47
64947;BMP280;51469;52.150;4.682;2024-03-02T04:50:41;100053.59;;;12.39
64947;BMP280;51469;52.150;4.682;2024-03-02T04:53:06;100056.59;;;12.59
64947;BMP280;51469;52.150;4.682;2024-03-02T04:55:32;100059.78;;;12.54
64947;BMP280;51469;52.150;4.682;2024-03-02T04:58:00;100063.84;;;12.39
64947;BMP280;51469;52.150;4.682;2024-03-02T05:00:25;100068.63;;;12.28
64947;BMP280;51469;52.150;4.682;2024-03-02T05:02:50;100070.59;;;12.31
64947;BMP280;51469;52.150;4.682;2024-03-02T05:05:16;100073.50;;;12.10
64947;BMP280;51469;52.150;4.682;2024-03-02T05:07:42;100074.97;;;12.25
64947;BMP280;51469;52.150;4.682;2024-03-02T05:10:09;100064.28;;;12.34
64947;BMP280;51469;52.150;4.682;2024-03-02T05:12:34;100069.19;;;12.56
64947;BMP280;51469;52.150;4.682;2024-03-02T05:15:13;100058.38;;;12.32
64947;BMP280;51469;52.150;4.682;2024-03-02T05:17:41;100064.88;;;12.55
64947;BMP280;51469;52.150;4.682;2024-03-02T05:20:09;100066.78;;;12.62
64947;BMP280;51469;52.150;4.682;2024-03-02T05:22:34;100073.59;;;12.47
64947;BMP280;51469;52.150;4.682;2024-03-02T05:25:00;100071.53;;;12.58
64947;BMP280;51469;52.150;4.682;2024-03-02T05:27:27;100064.59;;;12.43
64947;BMP280;51469;52.150;4.682;2024-03-02T05:29:52;100076.19;;;12.61
64947;BMP280;51469;52.150;4.682;2024-03-02T05:32:18;100078.78;;;12.38
64947;BMP280;51469;52.150;4.682;2024-03-02T05:34:43;100077.34;;;12.19
64947;BMP280;51469;52.150;4.682;2024-03-02T05:37:08;100085.75;;;12.46
64947;BMP280;51469;52.150;4.682;2024-03-02T05:39:34;100081.84;;;12.47
64947;BMP280;51469;52.150;4.682;2024-03-02T05:41:59;100089.28;;;12.50
64947;BMP280;51469;52.150;4.682;2024-03-02T05:44:24;100103.84;;;12.50
64947;BMP280;51469;52.150;4.682;2024-03-02T05:46:50;100097.44;;;12.64
64947;BMP280;51469;52.150;4.682;2024-03-02T05:49:15;100092.66;;;12.68
64947;BMP280;51469;52.150;4.682;2024-03-02T05:51:41;100099.75;;;12.69
64947;BMP280;51469;52.150;4.682;2024-03-02T05:54:06;100096.91;;;12.72
64947;BMP280;51469;52.150;4.682;2024-03-02T05:56:32;100096.59;;;12.67
64947;BMP280;51469;52.150;4.682;2024-03-02T05:58:58;100096.50;;;12.77
64947;BMP280;51469;52.150;4.682;2024-03-02T06:01:40;100092.66;;;12.68
64947;BMP280;51469;52.150;4.682;2024-03-02T06:04:06;100090.16;;;12.84
64947;BMP280;51469;52.150;4.682;2024-03-02T06:06:31;100092.22;;;12.73
64947;BMP280;51469;52.150;4.682;2024-03-02T06:09:00;100092.59;;;12.75
64947;BMP280;51469;52.150;4.682;2024-03-02T06:11:26;100096.25;;;12.65
64947;BMP280;51469;52.150;4.682;2024-03-02T06:13:51;100092.66;;;12.68
64947;BMP280;51469;52.150;4.682;2024-03-02T06:16:16;100090.44;;;12.52
64947;BMP280;51469;52.150;4.682;2024-03-02T06:18:42;100090.34;;;12.59
64947;BMP280;51469;52.150;4.682;2024-03-02T06:21:07;100095.84;;;12.63
64947;BMP280;51469;52.150;4.682;2024-03-02T06:23:33;100099.22;;;12.33
64947;BMP280;51469;52.150;4.682;2024-03-02T06:25:58;100103.25;;;12.22
64947;BMP280;51469;52.150;4.682;2024-03-02T06:28:24;100105.25;;;12.69
64947;BMP280;51469;52.150;4.682;2024-03-02T06:30:49;100113.25;;;12.46
64947;BMP280;51469;52.150;4.682;2024-03-02T06:33:14;100110.91;;;12.51
64947;BMP280;51469;52.150;4.682;2024-03-02T06:35:40;100111.19;;;12.64
64947;BMP280;51469;52.150;4.682;2024-03-02T06:38:06;100117.59;;;12.91
64947;BMP280;51469;52.150;4.682;2024-03-02T06:40:31;100123.16;;;12.40
64947;BMP280;51469;52.150;4.682;2024-03-02T06:42:56;100118.53;;;12.26
64947;BMP280;51469;52.150;4.682;2024-03-02T06:45:22;100123.41;;;12.56
64947;BMP280;51469;52.150;4.682;2024-03-02T06:47:47;100120.31;;;12.54
64947;BMP280;51469;52.150;4.682;2024-03-02T06:50:12;100126.13;;;12.05
64947;BMP280;51469;52.150;4.682;2024-03-02T06:52:38;100121.19;;;12.44
64947;BMP280;51469;52.150;4.682;2024-03-02T06:55:04;100120.63;;;12.63
64947;BMP280;51469;52.150;4.682;2024-03-02T06:57:30;100109.97;;;12.68
64947;BMP280;51469;52.150;4.682;2024-03-02T06:59:55;100128.28;;;12.38
64947;BMP280;51469;52.150;4.682;2024-03-02T07:02:26;100126.56;;;12.58
64947;BMP280;51469;52.150;4.682;2024-03-02T07:04:54;100136.63;;;12.75
64947;BMP280;51469;52.150;4.682;2024-03-02T07:07:20;100138.31;;;12.65
64947;BMP280;51469;52.150;4.682;2024-03-02T07:09:46;100127.19;;;12.76
64947;BMP280;51469;52.150;4.682;2024-03-02T07:12:11;100144.09;;;12.20
64947;BMP280;51469;52.150;4.682;2024-03-02T07:14:36;100139.25;;;12.45
64947;BMP280;51469;52.150;4.682;2024-03-02T07:17:20;100140.72;;;12.53
64947;BMP280;51469;52.150;4.682;2024-03-02T07:19:46;100143.69;;;12.76
64947;BMP280;51469;52.150;4.682;2024-03-02T07:22:11;100141.53;;;12.53
64947;BMP280;51469;52.150;4.682;2024-03-02T07:24:44;100142.59;;;12.12
64947;BMP280;51469;52.150;4.682;2024-03-02T07:27:11;100157.03;;;12.30
64947;BMP280;51469;52.150;4.682;2024-03-02T07:29:37;100153.53;;;12.22
64947;BMP280;51469;52.150;4.682;2024-03-02T07:32:03;100153.50;;;12.26
64947;BMP280;51469;52.150;4.682;2024-03-02T07:34:28;100154.06;;;12.58
64947;BMP280;51469;52.150;4.682;2024-03-02T07:36:54;100162.19;;;12.21
64947;BMP280;51469;52.150;4.682;2024-03-02T07:39:20;100173.50;;;12.33
64947;BMP280;51469;52.150;4.682;2024-03-02T07:41:46;100167.44;;;12.56
64947;BMP280;51469;52.150;4.682;2024-03-02T07:44:11;100171.38;;;12.55
64947;BMP280;51469;52.150;4.682;2024-03-02T07:46:40;100173.34;;;12.54
64947;BMP280;51469;52.150;4.682;2024-03-02T07:49:06;100164.59;;;12.70
64947;BMP280;51469;52.150;4.682;2024-03-02T07:51:31;100171.50;;;12.88
64947;BMP280;51469;52.150;4.682;2024-03-02T07:53:56;100169.59;;;12.82
64947;BMP280;51469;52.150;4.682;2024-03-02T07:56:22;100167.28;;;12.77
64947;BMP280;51469;52.150;4.682;2024-03-02T07:58:48;100172.00;;;12.76
64947;BMP280;51469;52.150;4.682;2024-03-02T08:01:14;100175.03;;;12.89
64947;BMP280;51469;52.150;4.682;2024-03-02T08:03:40;100176.63;;;12.90
64947;BMP280;51469;52.150;4.682;2024-03-02T08:06:06;100176.41;;;13.11
64947;BMP280;51469;52.150;4.682;2024-03-02T08:08:31;100181.03;;;13.21
64947;BMP280;51469;52.150;4.682;2024-03-02T08:10:57;100193.00;;;13.00
64947;BMP280;51469;52.150;4.682;2024-03-02T08:13:23;100175.44;;;13.28
64947;BMP280;51469;52.150;4.682;2024-03-02T08:15:48;100174.03;;;13.13
64947;BMP280;51469;52.150;4.682;2024-03-02T08:18:14;100165.41;;;13.48
64947;BMP280;51469;52.150;4.682;2024-03-02T08:20:40;100178.69;;;13.19
64947;BMP280;51469;52.150;4.682;2024-03-02T08:23:06;100169.50;;;13.63
64947;BMP280;51469;52.150;4.682;2024-03-02T08:25:31;100161.94;;;13.37
64947;BMP280;51469;52.150;4.682;2024-03-02T08:27:57;100168.06;;;13.55
64947;BMP280;51469;52.150;4.682;2024-03-02T08:30:23;100171.66;;;13.15
64947;BMP280;51469;52.150;4.682;2024-03-02T08:32:48;100160.41;;;13.36
64947;BMP280;51469;52.150;4.682;2024-03-02T08:35:13;100172.16;;;13.40
64947;BMP280;51469;52.150;4.682;2024-03-02T08:37:40;100157.13;;;13.48
64947;BMP280;51469;52.150;4.682;2024-03-02T08:40:07;100155.09;;;13.82
64947;BMP280;51469;52.150;4.682;2024-03-02T08:42:33;100154.22;;;13.92
64947;BMP280;51469;52.150;4.682;2024-03-02T08:44:58;100162.00;;;13.97
64947;BMP280;51469;52.150;4.682;2024-03-02T08:47:26;100175.22;;;14.09
64947;BMP280;51469;52.150;4.682;2024-03-02T08:49:52;100166.13;;;13.82
64947;BMP280;51469;52.150;4.682;2024-03-02T08:52:17;100165.84;;;14.03
64947;BMP280;51469;52.150;4.682;2024-03-02T08:54:42;100180.09;;;13.98
64947;BMP280;51469;52.150;4.682;2024-03-02T08:57:08;100179.72;;;14.22
64947;BMP280;51469;52.150;4.682;2024-03-02T08:59:33;100185.78;;;14.63
64947;BMP280;51469;52.150;4.682;2024-03-02T09:01:58;100196.84;;;14.37
64947;BMP280;51469;52.150;4.682;2024-03-02T09:04:24;100177.94;;;14.62
64947;BMP280;51469;52.150;4.682;2024-03-02T09:06:49;100167.22;;;15.10
64947;BMP280;51469;52.150;4.682;2024-03-02T09:09:15;100175.72;;;14.76
64947;BMP280;51469;52.150;4.682;2024-03-02T09:11:40;100188.75;;;14.99
64947;BMP280;51469;52.150;4.682;2024-03-02T09:14:05;100177.03;;;15.34
64947;BMP280;51469;52.150;4.682;2024-03-02T09:16:31;100188.84;;;15.15
64947;BMP280;51469;52.150;4.682;2024-03-02T09:18:58;100184.78;;;15.00
64947;BMP280;51469;52.150;4.682;2024-03-02T09:21:23;100181.13;;;15.26
64947;BMP280;51469;52.150;4.682;2024-03-02T09:23:48;100193.31;;;14.63
64947;BMP280;51469;52.150;4.682;2024-03-02T09:26:14;100199.28;;;14.62
64947;BMP280;51469;52.150;4.682;2024-03-02T09:28:43;100177.69;;;14.53
64947;BMP280;51469;52.150;4.682;2024-03-02T09:31:09;100192.34;;;15.19
64947;BMP280;51469;52.150;4.682;2024-03-02T09:33:34;100192.34;;;15.39
64947;BMP280;51469;52.150;4.682;2024-03-02T09:35:59;100206.50;;;15.80
64947;BMP280;51469;52.150;4.682;2024-03-02T09:38:25;100193.78;;;15.82
64947;BMP280;51469;52.150;4.682;2024-03-02T09:40:50;100193.06;;;15.98
64947;BMP280;51469;52.150;4.682;2024-03-02T09:43:16;100201.00;;;15.60
64947;BMP280;51469;52.150;4.682;2024-03-02T09:45:41;100198.47;;;15.27
64947;BMP280;51469;52.150;4.682;2024-03-02T09:48:07;100187.44;;;15.66
64947;BMP280;51469;52.150;4.682;2024-03-02T09:50:33;100195.91;;;15.39
64947;BMP280;51469;52.150;4.682;2024-03-02T09:52:59;100195.13;;;15.74
64947;BMP280;51469;52.150;4.682;2024-03-02T09:55:24;100181.91;;;15.66
64947;BMP280;51469;52.150;4.682;2024-03-02T09:57:50;100197.06;;;15.77
64947;BMP280;51469;52.150;4.682;2024-03-02T10:00:16;100204.00;;;15.66
64947;BMP280;51469;52.150;4.682;2024-03-02T10:02:42;100192.13;;;15.49
64947;BMP280;51469;52.150;4.682;2024-03-02T10:05:11;100196.88;;;15.68
64947;BMP280;51469;52.150;4.682;2024-03-02T10:07:37;100194.03;;;16.07
64947;BMP280;51469;52.150;4.682;2024-03-02T10:10:13;100197.72;;;15.65
64947;BMP280;51469;52.150;4.682;2024-03-02T10:12:39;100206.16;;;15.78
64947;BMP280;51469;52.150;4.682;2024-03-02T10:15:05;100202.88;;;15.83
64947;BMP280;51469;52.150;4.682;2024-03-02T10:17:31;100204.41;;;16.03
64947;BMP280;51469;52.150;4.682;2024-03-02T10:19:57;100196.00;;;16.07
64947;BMP280;51469;52.150;4.682;2024-03-02T10:22:23;100196.75;;;15.91
64947;BMP280;51469;52.150;4.682;2024-03-02T10:24:49;100200.47;;;16.20
64947;BMP280;51469;52.150;4.682;2024-03-02T10:27:27;100214.00;;;15.79
64947;BMP280;51469;52.150;4.682;2024-03-02T10:29:52;100213.03;;;15.89
64947;BMP280;51469;52.150;4.682;2024-03-02T10:32:22;100186.78;;;16.13
64947;BMP280;51469;52.150;4.682;2024-03-02T10:34:47;100184.19;;;16.22
64947;BMP280;51469;52.150;4.682;2024-03-02T10:37:14;100180.91;;;16.11
64947;BMP280;51469;52.150;4.682;2024-03-02T10:39:40;100170.06;;;16.01
64947;BMP280;51469;52.150;4.682;2024-03-02T10:42:06;100172.72;;;16.56
64947;BMP280;51469;52.150;4.682;2024-03-02T10:44:32;100182.28;;;16.67
64947;BMP280;51469;52.150;4.682;2024-03-02T10:47:02;100175.03;;;16.57
64947;BMP280;51469;52.150;4.682;2024-03-02T10:49:30;100172.78;;;16.52
64947;BMP280;51469;52.150;4.682;2024-03-02T10:51:55;100167.84;;;17.04
64947;BMP280;51469;52.150;4.682;2024-03-02T10:54:21;100163.44;;;16.62
64947;BMP280;51469;52.150;4.682;2024-03-02T10:56:53;100167.19;;;16.84
64947;BMP280;51469;52.150;4.682;2024-03-02T10:59:28;100161.53;;;16.59
64947;BMP280;51469;52.150;4.682;2024-03-02T11:01:58;100154.75;;;16.76
64947;BMP280;51469;52.150;4.682;2024-03-02T11:04:28;100159.59;;;16.72
64947;BMP280;51469;52.150;4.682;2024-03-02T11:07:02;100159.81;;;16.65
64947;BMP280;51469;52.150;4.682;2024-03-02T11:09:29;100169.16;;;16.55
64947;BMP280;51469;52.150;4.682;2024-03-02T11:12:23;100162.03;;;16.70
64947;BMP280;51469;52.150;4.682;2024-03-02T11:14:55;100161.53;;;16.75
64947;BMP280;51469;52.150;4.682;2024-03-02T11:17:21;100167.19;;;17.00
64947;BMP280;51469;52.150;4.682;2024-03-02T11:19:47;100148.44;;;17.04
64947;BMP280;51469;52.150;4.682;2024-03-02T11:22:13;100153.72;;;16.86
64947;BMP280;51469;52.150;4.682;2024-03-02T11:24:47;100163.63;;;17.28
64947;BMP280;51469;52.150;4.682;2024-03-02T11:27:13;100159.16;;;17.18
64947;BMP280;51469;52.150;4.682;2024-03-02T11:32:17;100155.41;;;17.37
64947;BMP280;51469;52.150;4.682;2024-03-02T11:34:45;100160.69;;;17.19
64947;BMP280;51469;52.150;4.682;2024-03-02T11:37:18;100150.28;;;17.23
64947;BMP280;51469;52.150;4.682;2024-03-02T11:39:46;100165.84;;;17.33
64947;BMP280;51469;52.150;4.682;2024-03-02T11:42:12;100152.59;;;17.78
64947;BMP280;51469;52.150;4.682;2024-03-02T11:44:50;100140.50;;;17.18
64947;BMP280;51469;52.150;4.682;2024-03-02T11:47:16;100156.38;;;17.59
64947;BMP280;51469;52.150;4.682;2024-03-02T11:49:50;100154.53;;;17.40
64947;BMP280;51469;52.150;4.682;2024-03-02T11:52:17;100155.22;;;17.44
64947;BMP280;51469;52.150;4.682;2024-03-02T11:54:45;100154.84;;;17.83
64947;BMP280;51469;52.150;4.682;2024-03-02T11:57:32;100139.69;;;18.09
64947;BMP280;51469;52.150;4.682;2024-03-02T11:59:57;100135.44;;;18.42
64947;BMP280;51469;52.150;4.682;2024-03-02T12:02:24;100135.41;;;18.54
64947;BMP280;51469;52.150;4.682;2024-03-02T12:04:49;100134.38;;;18.14
64947;BMP280;51469;52.150;4.682;2024-03-02T12:07:19;100132.75;;;18.51
64947;BMP280;51469;52.150;4.682;2024-03-02T12:09:46;100119.34;;;18.37
64947;BMP280;51469;52.150;4.682;2024-03-02T12:12:11;100121.22;;;18.40
64947;BMP280;51469;52.150;4.682;2024-03-02T12:14:50;100120.88;;;17.79
64947;BMP280;51469;52.150;4.682;2024-03-02T12:17:16;100110.63;;;18.13
64947;BMP280;51469;52.150;4.682;2024-03-02T12:19:41;100120.63;;;18.11
64947;BMP280;51469;52.150;4.682;2024-03-02T12:22:06;100104.41;;;18.09
64947;BMP280;51469;52.150;4.682;2024-03-02T12:24:32;100101.66;;;17.97
64947;BMP280;51469;52.150;4.682;2024-03-02T12:26:57;100111.09;;;17.87
64947;BMP280;51469;52.150;4.682;2024-03-02T12:29:23;100100.22;;;18.05
64947;BMP280;51469;52.150;4.682;2024-03-02T12:31:50;100094.31;;;18.03
64947;BMP280;51469;52.150;4.682;2024-03-02T12:34:17;100100.13;;;17.58
64947;BMP280;51469;52.150;4.682;2024-03-02T12:36:42;100090.00;;;18.02
64947;BMP280;51469;52.150;4.682;2024-03-02T12:39:09;100097.59;;;18.23
64947;BMP280;51469;52.150;4.682;2024-03-02T12:41:38;100098.25;;;18.39
64947;BMP280;51469;52.150;4.682;2024-03-02T12:44:04;100093.34;;;18.65
64947;BMP280;51469;52.150;4.682;2024-03-02T12:46:30;100089.38;;;18.66
64947;BMP280;51469;52.150;4.682;2024-03-02T12:48:56;100096.69;;;17.92
64947;BMP280;51469;52.150;4.682;2024-03-02T12:51:21;100089.44;;;18.41
64947;BMP280;51469;52.150;4.682;2024-03-02T12:53:54;100085.09;;;18.74
64947;BMP280;51469;52.150;4.682;2024-03-02T12:56:19;100090.50;;;18.56
64947;BMP280;51469;52.150;4.682;2024-03-02T12:58:45;100078.75;;;18.52
64947;BMP280;51469;52.150;4.682;2024-03-02T13:01:10;100094.28;;;18.62
64947;BMP280;51469;52.150;4.682;2024-03-02T13:03:39;100097.63;;;18.57
64947;BMP280;51469;52.150;4.682;2024-03-02T13:06:05;100077.19;;;18.51
64947;BMP280;51469;52.150;4.682;2024-03-02T13:08:31;100080.81;;;18.60
64947;BMP280;51469;52.150;4.682;2024-03-02T13:10:57;100071.25;;;18.40
64947;BMP280;51469;52.150;4.682;2024-03-02T13:13:23;100080.44;;;18.37
64947;BMP280;51469;52.150;4.682;2024-03-02T13:15:48;100067.16;;;18.66
64947;BMP280;51469;52.150;4.682;2024-03-02T13:18:14;100064.53;;;18.93
64947;BMP280;51469;52.150;4.682;2024-03-02T13:20:39;100053.91;;;19.22
64947;BMP280;51469;52.150;4.682;2024-03-02T13:23:05;100052.72;;;19.32
64947;BMP280;51469;52.150;4.682;2024-03-02T13:25:31;100056.63;;;19.13
64947;BMP280;51469;52.150;4.682;2024-03-02T13:27:57;100059.09;;;18.25
64947;BMP280;51469;52.150;4.682;2024-03-02T13:30:23;100058.72;;;18.57
64947;BMP280;51469;52.150;4.682;2024-03-02T13:32:48;100056.72;;;19.00
64947;BMP280;51469;52.150;4.682;2024-03-02T13:35:14;100053.69;;;18.43
64947;BMP280;51469;52.150;4.682;2024-03-02T13:37:39;100045.78;;;18.20
64947;BMP280;51469;52.150;4.682;2024-03-02T13:40:05;100039.59;;;18.59
64947;BMP280;51469;52.150;4.682;2024-03-02T13:42:31;100054.97;;;18.51
64947;BMP280;51469;52.150;4.682;2024-03-02T13:44:56;100051.13;;;18.36
64947;BMP280;51469;52.150;4.682;2024-03-02T13:47:22;100041.31;;;18.56
64947;BMP280;51469;52.150;4.682;2024-03-02T13:49:47;100041.81;;;18.64
64947;BMP280;51469;52.150;4.682;2024-03-02T13:52:14;100044.50;;;18.76
64947;BMP280;51469;52.150;4.682;2024-03-02T13:54:41;100041.91;;;18.82
64947;BMP280;51469;52.150;4.682;2024-03-02T13:57:07;100040.13;;;18.88
64947;BMP280;51469;52.150;4.682;2024-03-02T13:59:33;100046.66;;;19.03
64947;BMP280;51469;52.150;4.682;2024-03-02T14:01:59;100038.56;;;18.87